Time;durP1;ratioP1;P1;durP2;ratioP2;P2;SDS_P1;SDS_P2;PMS_P1;PMS_P2;Temp;Humidity;BMP_temperature;BMP_pressure;BME280_temperature;BME280_humidity;BME280_pressure;Samples;Min_cycle;Max_cycle;Signal;HPM_P1;HPM_P2
2023/06/23 00:02:17;;;;;;;4.97;1.80;;;;;;;16.45;100.00;101480.91;5032272;28;20107;-68
2023/06/23 00:04:44;;;;;;;8.38;2.15;;;;;;;16.35;100.00;101479.69;5029092;28;20050;-68
2023/06/23 00:07:11;;;;;;;5.75;1.88;;;;;;;16.13;100.00;101486.03;5023823;28;20487;-68
2023/06/23 00:09:38;;;;;;;5.78;1.95;;;;;;;16.14;100.00;101479.78;5045222;28;20057;-68
2023/06/23 00:12:08;;;;;;;5.53;2.00;;;;;;;16.17;100.00;101478.81;5052694;28;20477;-68
2023/06/23 00:14:34;;;;;;;5.30;1.88;;;;;;;16.11;100.00;101487.88;5029062;28;20037;-68
2023/06/23 00:17:02;;;;;;;5.18;1.60;;;;;;;16.25;100.00;101488.03;5045774;28;20478;-68
2023/06/23 00:19:31;;;;;;;6.05;1.70;;;;;;;16.04;100.00;101482.06;5040334;28;20053;-68
2023/06/23 00:21:58;;;;;;;6.95;2.05;;;;;;;16.02;100.00;101475.97;5032686;28;20050;-68
2023/06/23 00:24:27;;;;;;;6.13;1.70;;;;;;;16.07;100.00;101486.31;5023878;28;20046;-68
2023/06/23 00:26:53;;;;;;;6.22;1.95;;;;;;;16.04;100.00;101473.25;5049837;28;20110;-68
2023/06/23 00:29:20;;;;;;;4.72;1.60;;;;;;;16.03;100.00;101482.13;5038849;28;20065;-68
2023/06/23 00:31:49;;;;;;;6.45;1.95;;;;;;;15.96;100.00;101480.72;5040038;28;20159;-68
2023/06/23 00:34:16;;;;;;;6.20;1.70;;;;;;;15.71;100.00;101477.41;5041062;28;20056;-68
2023/06/23 00:36:43;;;;;;;8.00;2.20;;;;;;;15.54;100.00;101480.81;5031051;28;20395;-67
2023/06/23 00:39:09;;;;;;;7.30;2.15;;;;;;;15.58;100.00;101476.25;5032375;28;20056;-68
2023/06/23 00:41:36;;;;;;;6.15;2.05;;;;;;;15.52;100.00;101471.28;5045552;28;20410;-68
2023/06/23 00:44:07;;;;;;;8.52;2.53;;;;;;;15.33;100.00;101466.88;5033371;28;20052;-68
2023/06/23 00:46:34;;;;;;;7.68;2.28;;;;;;;15.27;100.00;101471.56;5030626;28;20037;-67
2023/06/23 00:49:01;;;;;;;6.20;2.05;;;;;;;15.36;100.00;101466.72;5045902;28;20418;-68
2023/06/23 00:51:29;;;;;;;6.85;2.35;;;;;;;15.40;100.00;101462.16;5036831;28;20164;-67
2023/06/23 00:53:58;;;;;;;8.20;2.75;;;;;;;15.26;100.00;101467.19;5032330;28;20143;-68
2023/06/23 00:56:25;;;;;;;7.55;2.47;;;;;;;15.15;100.00;101473.81;5031345;28;20128;-68
2023/06/23 00:58:54;;;;;;;6.97;2.30;;;;;;;15.04;100.00;101470.81;5041965;28;20057;-68
2023/06/23 01:01:20;;;;;;;8.13;2.10;;;;;;;14.97;100.00;101472.84;5039354;28;20048;-68
2023/06/23 01:03:48;;;;;;;5.68;2.10;;;;;;;15.03;100.00;101466.44;5038262;28;20414;-67
2023/06/23 01:06:37;;;;;;;6.63;2.30;;;;;;;14.93;100.00;101475.72;5032167;28;20049;-68
2023/06/23 01:09:20;;;;;;;10.35;2.80;;;;;;;14.99;100.00;101484.19;5034875;28;20053;-68
2023/06/23 01:12:02;;;;;;;6.43;2.00;;;;;;;15.00;100.00;101474.53;5043901;28;20071;-68
2023/06/23 01:14:50;;;;;;;7.82;2.60;;;;;;;15.02;100.00;101477.09;5032701;28;20054;-68
2023/06/23 01:17:24;;;;;;;8.05;2.28;;;;;;;15.07;100.00;101483.88;5029319;28;20049;-68
2023/06/23 01:20:18;;;;;;;8.38;2.78;;;;;;;14.97;100.00;101483.41;5031851;28;20553;-68
2023/06/23 01:23:03;;;;;;;8.75;2.42;;;;;;;14.84;100.00;101470.81;5031774;28;20045;-68
2023/06/23 01:25:54;;;;;;;9.27;2.60;;;;;;;14.85;100.00;101473.41;5022087;28;20037;-68
2023/06/23 01:28:39;;;;;;;5.97;2.00;;;;;;;14.93;100.00;101467.81;5037109;28;20423;-68
2023/06/23 01:31:09;;;;;;;7.35;2.30;;;;;;;15.02;100.00;101470.03;5027235;28;20055;-68
2023/06/23 01:33:43;;;;;;;8.25;2.30;;;;;;;14.76;100.00;101458.00;5038092;28;20128;-68
2023/06/23 01:36:14;;;;;;;8.43;2.33;;;;;;;14.73;100.00;101458.13;5045277;28;20046;-67
2023/06/23 01:38:47;;;;;;;10.63;2.60;;;;;;;14.56;100.00;101446.50;5030897;28;20048;-68
2023/06/23 01:41:21;;;;;;;7.78;2.80;;;;;;;14.53;100.00;101451.91;5040712;28;20049;-68
2023/06/23 01:43:53;;;;;;;6.97;2.22;;;;;;;14.69;100.00;101457.41;5028961;28;20049;-68
2023/06/23 01:46:25;;;;;;;7.28;2.60;;;;;;;14.55;100.00;101438.66;5031250;28;20045;-68
2023/06/23 01:48:55;;;;;;;;;;;;;;;14.50;100.00;101443.25;5037305;28;20067;-68
2023/06/23 01:51:26;;;;;;;9.38;2.80;;;;;;;14.24;100.00;101437.34;5023845;28;19920;-67
2023/06/23 01:53:55;;;;;;;5.95;2.17;;;;;;;14.32;100.00;101445.75;5049455;28;20051;-67
2023/06/23 01:56:25;;;;;;;7.10;2.45;;;;;;;14.38;100.00;101444.66;5035882;28;20392;-68
2023/06/23 01:58:55;;;;;;;8.32;2.70;;;;;;;14.26;100.00;101424.09;5038620;28;20503;-68
2023/06/23 02:01:23;;;;;;;6.82;2.70;;;;;;;14.46;100.00;101439.91;5042637;28;20847;-68
2023/06/23 02:03:52;;;;;;;12.23;2.75;;;;;;;14.32;100.00;101427.31;5022257;28;20053;-68
2023/06/23 02:06:20;;;;;;;7.03;2.50;;;;;;;14.47;100.00;101414.44;5014810;28;20045;-68
2023/06/23 02:08:49;;;;;;;8.20;2.80;;;;;;;14.69;100.00;101438.94;5020875;28;20057;-68
2023/06/23 02:11:17;;;;;;;7.30;2.80;;;;;;;14.61;100.00;101435.81;5026149;28;20136;-68
2023/06/23 02:13:45;;;;;;;6.95;2.60;;;;;;;14.52;100.00;101444.06;5024170;28;20132;-68
2023/06/23 02:16:13;;;;;;;9.65;2.45;;;;;;;14.34;100.00;101433.41;5028126;28;20047;-68
2023/06/23 02:18:41;;;;;;;7.85;2.63;;;;;;;14.39;100.00;101446.34;5029245;28;20418;-68
2023/06/23 02:21:11;;;;;;;8.43;2.78;;;;;;;14.39;100.00;101435.81;5014999;28;20495;-68
2023/06/23 02:23:39;;;;;;;6.63;2.33;;;;;;;14.37;100.00;101435.88;5017633;28;20058;-68
2023/06/23 02:26:07;;;;;;;7.70;2.67;;;;;;;14.35;100.00;101426.34;5020194;28;20569;-68
2023/06/23 02:28:35;;;;;;;6.95;2.45;;;;;;;14.39;100.00;101434.03;5018798;28;20081;-68
2023/06/23 02:31:05;;;;;;;7.15;2.63;;;;;;;14.41;100.00;101429.59;5028241;28;20053;-67
2023/06/23 02:33:32;;;;;;;5.72;2.30;;;;;;;14.37;100.00;101424.50;5026640;28;20053;-67
2023/06/23 02:36:02;;;;;;;6.70;2.35;;;;;;;14.37;100.00;101417.44;5013996;28;20049;-68
2023/06/23 02:38:30;;;;;;;6.05;2.30;;;;;;;14.32;100.00;101424.69;5018309;28;20053;-67
2023/06/23 02:40:59;;;;;;;6.28;2.40;;;;;;;14.30;100.00;101405.44;5028558;28;20057;-68
2023/06/23 02:43:35;;;;;;;7.53;2.33;;;;;;;14.49;100.00;101412.59;5023282;28;20053;-68
2023/06/23 02:46:06;;;;;;;5.85;2.17;;;;;;;14.57;100.00;101405.19;5020914;28;20493;-67
2023/06/23 02:48:39;;;;;;;7.05;2.22;;;;;;;14.61;100.00;101412.09;5031500;28;20120;-68
2023/06/23 02:51:12;;;;;;;6.05;2.10;;;;;;;14.73;100.00;101397.50;5016599;28;20056;-67
2023/06/23 02:53:48;;;;;;;5.77;2.10;;;;;;;14.79;100.00;101405.13;5028758;28;20152;-68
2023/06/23 02:56:22;;;;;;;6.18;2.10;;;;;;;14.79;100.00;101399.88;5027582;28;20286;-67
2023/06/23 02:58:53;;;;;;;7.80;2.30;;;;;;;14.70;100.00;101398.50;5024097;28;20460;-68
2023/06/23 03:01:22;;;;;;;9.95;2.40;;;;;;;14.60;100.00;101384.84;5027954;28;20051;-67
2023/06/23 03:03:49;;;;;;;7.15;2.58;;;;;;;14.64;100.00;101387.38;5029765;28;20064;-68
2023/06/23 03:06:20;;;;;;;8.50;2.42;;;;;;;14.69;100.00;101393.28;5033853;28;20081;-68
2023/06/23 03:08:47;;;;;;;7.30;2.47;;;;;;;14.64;100.00;101390.00;5032635;28;20053;-68
2023/06/23 03:11:20;;;;;;;7.57;2.40;;;;;;;14.61;100.00;101391.00;5030308;28;20049;-68
2023/06/23 03:13:48;;;;;;;5.38;2.10;;;;;;;14.70;100.00;101401.13;5031092;28;20060;-68
2023/06/23 03:16:22;;;;;;;8.18;2.30;;;;;;;14.71;100.00;101391.44;5026135;28;20080;-67
2023/06/23 03:18:53;;;;;;;;;;;;;;;14.68;100.00;101395.06;5021465;28;20061;-68
2023/06/23 03:21:22;;;;;;;5.82;2.15;;;;;;;14.60;100.00;101384.00;5027688;28;19929;-68
2023/06/23 03:23:55;;;;;;;6.40;2.55;;;;;;;14.61;100.00;101388.38;5030495;28;20055;-67
2023/06/23 03:26:23;;;;;;;8.83;2.70;;;;;;;14.63;100.00;101385.66;5024941;28;20042;-67
2023/06/23 03:28:57;;;;;;;8.40;2.67;;;;;;;14.71;100.00;101383.53;5025164;28;20047;-68
2023/06/23 03:31:26;;;;;;;5.95;2.30;;;;;;;14.88;100.00;101383.63;5025009;28;20053;-68
2023/06/23 03:33:56;;;;;;;5.50;2.03;;;;;;;15.10;100.00;101372.09;5028900;28;20132;-68
2023/06/23 03:36:24;;;;;;;5.97;2.22;;;;;;;15.16;100.00;101377.94;5013833;28;20077;-68
2023/06/23 03:39:01;;;;;;;6.25;2.20;;;;;;;15.23;100.00;101388.19;5022065;28;20084;-68
2023/06/23 03:41:29;;;;;;;3.92;1.70;;;;;;;15.39;100.00;101381.28;5020358;28;20510;-68
2023/06/23 03:44:01;;;;;;;5.75;1.92;;;;;;;15.45;100.00;101382.78;5017261;28;20108;-68
2023/06/23 03:46:52;;;;;;;6.68;2.22;;;;;;;15.35;100.00;101385.88;5019221;28;20042;-68
2023/06/23 03:49:26;;;;;;;7.85;2.70;;;;;;;15.26;100.00;101378.34;5009982;28;20056;-68
2023/06/23 03:51:57;;;;;;;6.68;2.25;;;;;;;15.35;100.00;101369.16;5022266;28;20049;-68
2023/06/23 03:54:26;;;;;;;6.53;2.30;;;;;;;15.47;100.00;101386.19;5024858;28;20068;-68
2023/06/23 03:56:55;;;;;;;6.78;2.35;;;;;;;15.51;100.00;101393.91;5012583;28;20395;-68
2023/06/23 03:59:25;;;;;;;7.82;3.03;;;;;;;15.50;100.00;101388.69;5013176;28;20054;-68
2023/06/23 04:01:54;;;;;;;12.75;2.97;;;;;;;15.52;100.00;101385.03;5024806;28;20077;-68
2023/06/23 04:04:25;;;;;;;6.75;2.40;;;;;;;15.59;100.00;101382.97;5025656;28;20073;-69
2023/06/23 04:06:53;;;;;;;12.20;2.75;;;;;;;15.68;100.00;101389.59;5016147;28;20053;-68
2023/06/23 04:09:20;;;;;;;7.25;2.60;;;;;;;15.83;100.00;101391.53;5031641;28;20057;-68
2023/06/23 04:11:50;;;;;;;7.18;2.40;;;;;;;15.94;100.00;101386.53;5017644;28;20050;-68
2023/06/23 04:14:19;;;;;;;6.78;2.28;;;;;;;16.16;100.00;101388.09;5030921;28;20053;-69
2023/06/23 04:16:49;;;;;;;7.10;2.30;;;;;;;16.45;100.00;101391.03;5032413;28;20072;-68
2023/06/23 04:19:17;;;;;;;6.80;2.25;;;;;;;16.69;100.00;101386.25;5028860;28;20479;-68
2023/06/23 04:21:45;;;;;;;5.38;1.92;;;;;;;16.69;100.00;101379.19;5027637;28;20447;-68
2023/06/23 04:24:14;;;;;;;7.70;2.28;;;;;;;16.66;100.00;101382.00;5017384;28;20057;-68
2023/06/23 04:26:43;;;;;;;7.80;1.88;;;;;;;16.59;100.00;101399.13;5029878;28;20064;-68
2023/06/23 04:29:12;;;;;;;6.32;2.08;;;;;;;16.63;100.00;101384.81;5023734;28;20593;-68
2023/06/23 04:31:40;;;;;;;6.35;2.20;;;;;;;16.65;100.00;101382.09;5027765;28;20049;-69
2023/06/23 04:34:07;;;;;;;5.28;1.95;;;;;;;16.62;100.00;101377.78;5030057;28;20407;-68
2023/06/23 04:36:48;;;;;;;5.55;2.08;;;;;;;16.52;100.00;101372.16;5019903;28;20176;-68
2023/06/23 04:39:27;;;;;;;6.00;2.00;;;;;;;16.57;100.00;101368.41;5030648;28;20044;-68
2023/06/23 04:42:04;;;;;;;6.05;2.08;;;;;;;16.57;100.00;101358.69;5030990;28;20467;-68
2023/06/23 04:44:41;;;;;;;6.43;1.92;;;;;;;16.77;100.00;101362.91;5031252;28;20140;-68
2023/06/23 04:47:10;;;;;;;5.82;1.92;;;;;;;16.80;100.00;101353.97;5025783;28;20038;-68
2023/06/23 04:49:40;;;;;;;5.10;1.80;;;;;;;16.79;100.00;101350.47;5025960;28;20460;-69
2023/06/23 04:52:09;;;;;;;6.60;2.13;;;;;;;16.64;100.00;101352.16;5031430;28;20053;-68
2023/06/23 04:54:41;;;;;;;8.43;2.97;;;;;;;16.28;100.00;101350.50;5030460;28;20083;-68
2023/06/23 04:57:16;;;;;;;6.97;2.40;;;;;;;16.48;100.00;101361.81;5031276;28;20045;-68
2023/06/23 04:59:51;;;;;;;8.40;3.17;;;;;;;16.65;100.00;101361.78;5026712;28;20542;-68
2023/06/23 05:02:20;;;;;;;8.93;2.50;;;;;;;16.60;100.00;101355.88;5030415;28;20057;-68
2023/06/23 05:04:49;;;;;;;6.15;2.28;;;;;;;16.95;100.00;101347.88;5027571;28;20076;-68
2023/06/23 05:07:18;;;;;;;11.07;2.55;;;;;;;16.98;100.00;101355.66;5023347;28;20038;-68
2023/06/23 05:09:48;;;;;;;7.60;2.53;;;;;;;17.04;100.00;101346.53;5028179;28;20514;-68
2023/06/23 05:12:18;;;;;;;8.38;2.65;;;;;;;17.07;100.00;101359.59;5017317;28;20141;-68
2023/06/23 05:14:47;;;;;;;8.82;3.38;;;;;;;17.22;100.00;101358.72;5027935;28;20471;-68
2023/06/23 05:17:16;;;;;;;9.45;2.75;;;;;;;17.34;100.00;101359.84;5025356;28;20134;-68
2023/06/23 05:19:46;;;;;;;9.93;2.70;;;;;;;17.46;100.00;101368.88;5017962;28;20053;-68
2023/06/23 05:22:17;;;;;;;7.20;2.78;;;;;;;17.46;100.00;101369.72;5028141;28;20714;-69
2023/06/23 05:24:52;;;;;;;10.57;3.28;;;;;;;17.24;100.00;101354.19;5020056;28;20056;-68
2023/06/23 05:27:24;;;;;;;10.23;3.30;;;;;;;17.44;100.00;101363.69;5027142;28;20081;-69
2023/06/23 05:29:56;;;;;;;7.45;2.50;;;;;;;17.48;100.00;101367.00;5026493;28;20073;-68
2023/06/23 05:32:24;;;;;;;8.80;3.25;;;;;;;17.63;100.00;101352.03;5015195;28;20224;-68
2023/06/23 05:34:58;;;;;;;12.32;3.40;;;;;;;17.89;100.00;101370.91;5011543;28;20042;-68
2023/06/23 05:37:27;;;;;;;9.93;2.88;;;;;;;17.70;100.00;101363.97;5023934;28;20454;-68
2023/06/23 05:39:57;;;;;;;9.10;3.30;;;;;;;17.32;100.00;101364.38;5019635;28;21251;-68
2023/06/23 05:42:25;;;;;;;11.15;3.53;;;;;;;17.01;100.00;101360.75;5021510;28;20049;-68
2023/06/23 05:44:53;;;;;;;8.88;3.30;;;;;;;17.24;100.00;101356.84;5018577;28;20058;-68
2023/06/23 05:47:24;;;;;;;8.13;3.15;;;;;;;17.16;100.00;101360.88;5019338;28;20058;-68
2023/06/23 05:49:55;;;;;;;11.55;3.00;;;;;;;17.11;100.00;101345.25;5020567;28;20565;-68
2023/06/23 05:52:22;;;;;;;8.95;3.30;;;;;;;17.09;100.00;101355.06;5020308;28;20414;-68
2023/06/23 05:54:54;;;;;;;11.10;3.20;;;;;;;17.17;100.00;101358.13;5029523;28;20045;-68
2023/06/23 05:57:27;;;;;;;11.27;3.05;;;;;;;17.19;100.00;101361.56;5029866;28;20132;-68
2023/06/23 06:00:13;;;;;;;7.47;2.95;;;;;;;17.04;100.00;101355.31;5024613;28;20071;-68
2023/06/23 06:02:46;;;;;;;8.05;2.88;;;;;;;16.81;100.00;101353.88;5013805;28;20144;-68
2023/06/23 06:05:17;;;;;;;9.57;3.85;;;;;;;16.86;100.00;101351.88;5016283;28;20513;-68
2023/06/23 06:07:46;;;;;;;8.38;3.28;;;;;;;16.97;100.00;101350.44;5010942;28;20053;-68
2023/06/23 06:10:15;;;;;;;10.88;3.53;;;;;;;16.92;100.00;101341.91;5011640;28;20045;-68
2023/06/23 06:12:45;;;;;;;9.27;3.17;;;;;;;17.11;100.00;101347.88;5015857;28;20395;-68
2023/06/23 06:15:17;;;;;;;11.95;3.40;;;;;;;17.35;100.00;101345.69;5015829;28;20479;-69
2023/06/23 06:17:45;;;;;;;8.27;2.88;;;;;;;17.32;100.00;101351.13;5029173;28;20153;-68
2023/06/23 06:20:14;;;;;;;8.60;2.88;;;;;;;17.63;100.00;101347.56;5018650;28;20515;-69
2023/06/23 06:22:44;;;;;;;8.70;3.10;;;;;;;17.99;100.00;101340.28;5025891;28;20422;-68
2023/06/23 06:25:13;;;;;;;8.63;3.17;;;;;;;18.48;100.00;101355.84;5026729;28;20041;-68
2023/06/23 06:27:44;;;;;;;14.00;3.63;;;;;;;18.17;100.00;101356.88;5017526;28;20059;-69
2023/06/23 06:30:12;;;;;;;8.75;3.13;;;;;;;18.13;100.00;101348.25;5016848;28;20108;-68
2023/06/23 06:32:41;;;;;;;10.63;3.10;;;;;;;18.53;100.00;101340.53;5027259;28;20054;-68
2023/06/23 06:35:10;;;;;;;8.77;3.40;;;;;;;18.98;100.00;101337.75;5024633;28;20049;-69
2023/06/23 06:37:41;;;;;;;11.85;3.08;;;;;;;19.97;100.00;101342.00;5029230;28;20046;-69
2023/06/23 06:40:11;;;;;;;10.05;2.95;;;;;;;19.60;100.00;101349.72;5027184;28;20156;-69
2023/06/23 06:42:38;;;;;;;6.65;2.45;;;;;;;19.14;100.00;101354.44;5026193;28;20487;-68
2023/06/23 06:45:05;;;;;;;10.50;3.15;;;;;;;19.04;100.00;101358.63;5021080;28;20751;-69
2023/06/23 06:47:40;;;;;;;14.45;4.05;;;;;;;18.65;100.00;101354.84;5028805;28;20172;-69
2023/06/23 06:50:09;;;;;;;9.63;2.70;;;;;;;18.58;100.00;101348.19;5032026;28;20563;-69
2023/06/23 06:52:39;;;;;;;9.65;2.35;;;;;;;18.96;100.00;101350.28;5028864;28;20054;-69
2023/06/23 06:55:19;;;;;;;13.38;3.42;;;;;;;18.45;100.00;101355.19;5023349;28;20054;-69
2023/06/23 06:57:47;;;;;;;11.50;3.00;;;;;;;18.74;100.00;101356.91;5019364;28;20045;-69
2023/06/23 07:00:18;;;;;;;10.32;3.50;;;;;;;19.03;100.00;101371.97;5030253;28;20061;-69
2023/06/23 07:02:45;;;;;;;9.55;3.10;;;;;;;19.15;100.00;101358.78;5019811;28;20156;-69
2023/06/23 07:05:13;;;;;;;10.95;3.22;;;;;;;18.44;100.00;101369.41;5023125;28;20049;-68
2023/06/23 07:07:40;;;;;;;9.38;2.60;;;;;;;18.65;100.00;101360.13;5030845;28;20053;-69
2023/06/23 07:10:07;;;;;;;12.02;3.55;;;;;;;18.60;100.00;101365.72;5030096;28;20096;-69
2023/06/23 07:12:34;;;;;;;11.60;3.72;;;;;;;18.48;100.00;101374.41;5021948;28;20587;-69
2023/06/23 07:15:02;;;;;;;10.52;2.92;;;;;;;18.45;100.00;101358.72;5023764;28;20123;-69
2023/06/23 07:17:28;;;;;;;9.02;2.90;;;;;;;18.47;100.00;101361.25;5026827;28;20049;-69
2023/06/23 07:19:55;;;;;;;8.90;3.30;;;;;;;18.36;100.00;101372.50;5025675;28;20049;-69
2023/06/23 07:22:22;;;;;;;7.65;2.50;;;;;;;18.60;100.00;101364.88;5030803;28;20124;-69
2023/06/23 07:24:49;;;;;;;13.32;3.35;;;;;;;17.93;100.00;101361.81;5024071;28;20064;-69
2023/06/23 07:27:17;;;;;;;8.93;3.05;;;;;;;17.98;100.00;101367.69;5021971;28;20132;-69
2023/06/23 07:29:44;;;;;;;11.75;3.00;;;;;;;18.06;100.00;101361.94;5028470;28;20564;-69
2023/06/23 07:32:14;;;;;;;9.10;3.47;;;;;;;17.89;100.00;101366.44;5030873;28;20053;-69
2023/06/23 07:34:41;;;;;;;10.15;3.53;;;;;;;18.06;100.00;101360.16;5029204;28;20068;-68
2023/06/23 07:37:08;;;;;;;11.35;3.35;;;;;;;17.91;100.00;101358.41;5029455;28;20878;-68
2023/06/23 07:39:36;;;;;;;11.05;3.05;;;;;;;18.29;100.00;101363.22;5026775;28;20057;-68
2023/06/23 07:42:04;;;;;;;13.02;4.15;;;;;;;18.24;100.00;101373.25;5028414;28;20049;-68
2023/06/23 07:44:33;;;;;;;13.68;3.63;;;;;;;18.22;100.00;101370.72;5030855;28;20056;-69
2023/06/23 07:47:00;;;;;;;12.93;4.10;;;;;;;18.02;100.00;101348.91;5031032;28;20041;-68
2023/06/23 07:49:27;;;;;;;8.52;3.55;;;;;;;17.94;100.00;101359.09;5031176;28;20430;-68
2023/06/23 07:51:59;;;;;;;10.95;3.58;;;;;;;18.20;100.00;101361.97;5031676;28;20049;-68
2023/06/23 07:54:28;;;;;;;12.17;3.50;;;;;;;18.23;100.00;101360.94;5028217;28;20145;-68
2023/06/23 07:56:59;;;;;;;15.73;3.97;;;;;;;17.93;100.00;101359.16;5030723;28;20048;-69
2023/06/23 07:59:25;;;;;;;17.27;4.07;;;;;;;17.86;100.00;101361.31;5025901;28;20064;-68
2023/06/23 08:01:53;;;;;;;11.68;4.07;;;;;;;17.69;100.00;101361.41;5022514;28;20041;-68
2023/06/23 08:04:21;;;;;;;12.93;4.13;;;;;;;17.97;100.00;101358.03;5029466;28;20294;-69
2023/06/23 08:06:48;;;;;;;12.30;4.28;;;;;;;18.11;100.00;101363.38;5026320;28;20049;-69
2023/06/23 08:09:15;;;;;;;16.55;4.43;;;;;;;17.86;100.00;101363.97;5031386;28;20063;-68
2023/06/23 08:11:42;;;;;;;14.73;4.50;;;;;;;17.72;100.00;101356.78;5030812;28;20049;-69
2023/06/23 08:14:10;;;;;;;10.13;3.65;;;;;;;18.03;100.00;101363.84;5023506;28;20104;-69
2023/06/23 08:16:37;;;;;;;13.32;4.15;;;;;;;18.37;100.00;101372.41;5023600;28;20581;-68
2023/06/23 08:19:04;;;;;;;11.13;3.40;;;;;;;18.20;100.00;101377.88;5030299;28;20454;-69
2023/06/23 08:21:31;;;;;;;14.25;3.50;;;;;;;18.44;100.00;101377.38;5027646;28;20083;-69
2023/06/23 08:23:58;;;;;;;9.15;3.55;;;;;;;18.17;100.00;101364.81;5031296;28;20049;-69
2023/06/23 08:26:24;;;;;;;11.63;3.22;;;;;;;17.95;100.00;101359.94;5030880;28;20054;-69
2023/06/23 08:28:51;;;;;;;9.88;3.25;;;;;;;17.83;100.00;101359.69;5029263;28;20060;-68
2023/06/23 08:31:18;;;;;;;11.68;4.20;;;;;;;17.41;100.00;101363.84;5021645;28;20467;-68
2023/06/23 08:33:45;;;;;;;15.07;4.15;;;;;;;17.61;100.00;101362.69;5030660;28;20092;-66
2023/06/23 08:36:11;;;;;;;11.00;3.35;;;;;;;17.55;100.00;101363.06;5036574;28;20456;-69
2023/06/23 08:38:38;;;;;;;8.25;2.78;;;;;;;17.97;100.00;101371.28;5028363;28;20136;-68
2023/06/23 08:41:06;;;;;;;10.57;4.15;;;;;;;17.88;100.00;101375.31;5026525;28;20045;-69
2023/06/23 08:43:35;;;;;;;11.20;3.60;;;;;;;17.80;100.00;101382.84;5023009;28;20141;-69
2023/06/23 08:46:05;;;;;;;12.50;4.18;;;;;;;17.76;100.00;101363.63;5026265;28;20156;-69
2023/06/23 08:48:32;;;;;;;11.85;4.35;;;;;;;17.63;100.00;101368.75;5023341;28;20080;-70
2023/06/23 08:51:02;;;;;;;13.90;4.00;;;;;;;17.30;100.00;101358.31;5029579;28;20112;-70
2023/06/23 08:53:29;;;;;;;11.60;3.90;;;;;;;17.37;100.00;101350.84;5029393;28;20145;-70
2023/06/23 08:55:56;;;;;;;10.85;4.15;;;;;;;17.17;100.00;101338.75;5030594;28;20053;-70
2023/06/23 08:58:24;;;;;;;15.52;5.10;;;;;;;17.11;100.00;101349.69;5029642;28;20045;-70
2023/06/23 09:00:52;;;;;;;10.00;3.47;;;;;;;17.31;100.00;101353.88;5030891;28;20053;-70
2023/06/23 09:03:20;;;;;;;9.52;3.78;;;;;;;17.49;100.00;101341.38;5026342;28;20084;-70
2023/06/23 09:05:47;;;;;;;13.02;3.92;;;;;;;17.57;100.00;101336.50;5028445;28;20441;-70
2023/06/23 09:08:14;;;;;;;14.77;4.60;;;;;;;17.24;100.00;101340.13;5015275;28;20053;-70
2023/06/23 09:10:41;;;;;;;13.15;3.63;;;;;;;17.48;100.00;101347.63;5026215;28;20423;-70
2023/06/23 09:13:07;;;;;;;14.90;4.00;;;;;;;17.44;100.00;101349.56;5028380;28;20053;-70
2023/06/23 09:15:34;;;;;;;10.55;4.05;;;;;;;17.48;100.00;101348.47;5019555;28;20051;-70
2023/06/23 09:18:21;;;;;;;18.13;5.32;;;;;;;17.02;100.00;101349.25;5029446;28;20060;-70
2023/06/23 09:20:50;;;;;;;13.88;5.15;;;;;;;17.05;100.00;101348.22;5028227;28;20120;-70
2023/06/23 09:23:22;;;;;;;11.10;3.90;;;;;;;17.06;100.00;101358.72;5028547;28;20049;-70
2023/06/23 09:25:50;;;;;;;11.40;4.22;;;;;;;17.22;100.00;101360.53;5017275;28;20089;-70
2023/06/23 09:28:39;;;;;;;10.25;4.20;;;;;;;16.94;100.00;101358.53;5027594;28;20527;-70
2023/06/23 09:31:11;;;;;;;13.25;4.63;;;;;;;16.91;100.00;101349.00;5018708;28;20048;-70
2023/06/23 09:33:51;;;;;;;11.60;4.35;;;;;;;17.10;100.00;101346.16;5028678;28;20057;-70
2023/06/23 09:36:18;;;;;;;9.18;4.15;;;;;;;16.87;100.00;101327.16;5029650;28;20107;-70
2023/06/23 09:38:45;;;;;;;10.57;3.80;;;;;;;17.25;100.00;101334.75;5024194;28;20101;-70
2023/06/23 09:41:14;;;;;;;15.32;4.72;;;;;;;17.25;100.00;101324.16;5029819;28;20049;-70
2023/06/23 09:43:42;;;;;;;10.05;3.85;;;;;;;17.42;100.00;101347.03;5028122;28;20088;-70
2023/06/23 09:46:11;;;;;;;10.40;3.75;;;;;;;17.34;100.00;101343.13;5021941;28;20538;-70
2023/06/23 09:48:40;;;;;;;11.60;4.20;;;;;;;17.54;100.00;101334.88;5021283;28;20057;-69
2023/06/23 09:51:06;;;;;;;10.73;3.92;;;;;;;17.78;100.00;101342.34;5026253;28;20410;-70
2023/06/23 09:53:40;;;;;;;13.07;3.70;;;;;;;17.47;100.00;101341.47;5019885;28;20050;-69
2023/06/23 09:56:14;;;;;;;12.10;3.45;;;;;;;17.78;100.00;101324.66;5029789;28;20055;-70
2023/06/23 09:58:42;;;;;;;8.48;3.03;;;;;;;18.05;100.00;101337.25;5029116;28;20083;-70
2023/06/23 10:01:15;;;;;;;9.80;3.58;;;;;;;17.93;100.00;101324.72;5030252;28;20080;-69
2023/06/23 10:03:46;;;;;;;;;;;;;;;18.17;100.00;101336.53;5027287;28;20053;-70
2023/06/23 10:06:37;;;;;;;10.48;3.90;;;;;;;18.29;100.00;101334.06;5029157;28;19920;-70
2023/06/23 10:09:09;;;;;;;8.38;3.28;;;;;;;18.37;100.00;101319.41;5029120;28;20038;-69
2023/06/23 10:11:38;;;;;;;11.15;3.25;;;;;;;18.35;100.00;101321.28;5026163;28;20371;-70
2023/06/23 10:14:10;;;;;;;9.35;3.70;;;;;;;18.25;100.00;101335.19;5023809;28;20398;-69
2023/06/23 10:16:53;;;;;;;10.63;4.23;;;;;;;18.36;100.00;101330.97;5028817;28;20472;-70
2023/06/23 10:19:20;;;;;;;11.02;3.13;;;;;;;18.43;100.00;101323.47;5020170;28;20107;-69
2023/06/23 10:21:47;;;;;;;8.80;3.53;;;;;;;18.70;100.00;101322.72;5019021;28;20080;-70
2023/06/23 10:24:18;;;;;;;11.73;4.28;;;;;;;18.77;100.00;101329.34;5026833;28;20049;-70
2023/06/23 10:26:46;;;;;;;9.50;3.70;;;;;;;19.08;100.00;101325.63;5031520;28;20443;-70
2023/06/23 10:29:14;;;;;;;11.23;4.38;;;;;;;19.27;100.00;101324.44;5028193;28;20379;-70
2023/06/23 10:31:42;;;;;;;13.32;5.88;;;;;;;19.39;100.00;101321.00;5029552;28;20107;-70
2023/06/23 10:34:15;;;;;;;14.00;4.85;;;;;;;19.46;100.00;101321.41;5027147;28;20483;-69
2023/06/23 10:36:50;;;;;;;11.00;4.18;;;;;;;19.72;100.00;101317.91;5029816;28;20060;-70
2023/06/23 10:39:18;;;;;;;12.70;4.22;;;;;;;19.44;100.00;101315.38;5029358;28;20124;-69
2023/06/23 10:41:47;;;;;;;11.23;3.65;;;;;;;19.63;100.00;101309.69;5028002;28;20053;-69
2023/06/23 10:44:15;;;;;;;11.13;4.20;;;;;;;19.75;100.00;101311.56;5027835;28;20525;-69
2023/06/23 10:46:42;;;;;;;9.13;3.88;;;;;;;19.79;100.00;101306.91;5028349;28;20049;-68
2023/06/23 10:49:09;;;;;;;10.02;3.10;;;;;;;20.47;100.00;101295.97;5025064;28;20041;-70
2023/06/23 10:51:37;;;;;;;9.15;3.20;;;;;;;20.67;100.00;101299.91;5028600;28;20050;-69
2023/06/23 10:54:07;;;;;;;9.77;3.78;;;;;;;20.59;100.00;101294.25;5027864;28;20081;-69
2023/06/23 10:56:36;;;;;;;8.98;3.03;;;;;;;20.68;100.00;101300.75;5027108;28;20092;-69
2023/06/23 10:59:27;;;;;;;9.85;3.60;;;;;;;20.93;100.00;101293.66;5015864;28;20050;-69
2023/06/23 11:02:00;;;;;;;10.10;4.40;;;;;;;20.73;100.00;101292.44;5015838;28;20049;-69
2023/06/23 11:04:28;;;;;;;11.65;3.92;;;;;;;20.62;100.00;101291.38;5018896;28;20060;-69
2023/06/23 11:07:09;;;;;;;12.90;4.03;;;;;;;20.20;100.00;101282.81;5026846;28;20104;-69
2023/06/23 11:09:58;;;;;;;9.73;3.70;;;;;;;20.93;100.00;101286.53;5010771;28;20038;-69
2023/06/23 11:12:33;;;;;;;9.90;4.03;;;;;;;21.29;100.00;101270.63;5009683;28;20108;-69
2023/06/23 11:15:20;;;;;;;11.32;3.55;;;;;;;21.72;100.00;101275.41;5010790;28;20133;-69
2023/06/23 11:18:01;;;;;;;12.18;3.92;;;;;;;21.84;100.00;101273.63;5017608;28;20072;-70
2023/06/23 11:20:30;;;;;;;10.43;3.85;;;;;;;21.02;100.00;101277.03;5027459;28;20069;-69
2023/06/23 11:23:03;;;;;;;16.40;4.43;;;;;;;20.73;100.00;101273.81;5023428;28;20142;-70
2023/06/23 11:25:39;;;;;;;20.02;5.60;;;;;;;20.27;100.00;101261.94;5020913;28;20409;-70
2023/06/23 11:28:40;;;;;;;13.88;4.40;;;;;;;20.04;100.00;101269.72;5022002;28;20038;-70
2023/06/23 11:31:19;;;;;;;10.93;3.60;;;;;;;20.40;100.00;101256.63;5027843;28;20503;-70